createdAt,value
2022-12-25T00:01:36.108Z,56.88
2022-12-25T00:04:03.930Z,57.03
2022-12-25T00:06:31.818Z,58.05
2022-12-25T00:08:59.579Z,51.17
2022-12-25T00:11:27.505Z,50.85
2022-12-25T00:13:56.811Z,44.10
2022-12-25T00:16:27.051Z,43.20
2022-12-25T00:18:55.317Z,51.28
2022-12-25T00:21:23.586Z,44.45
2022-12-25T00:23:55.300Z,41.35
2022-12-25T00:26:23.708Z,42.85
2022-12-25T00:28:53.830Z,43.40
2022-12-25T00:31:24.010Z,36.72
2022-12-25T00:33:53.577Z,38.38
2022-12-25T00:36:23.305Z,28.27
2022-12-25T00:38:51.185Z,31.38
2022-12-25T00:41:42.011Z,36.17
2022-12-25T00:44:12.842Z,32.70
2022-12-25T00:46:42.932Z,31.30
2022-12-25T00:49:11.168Z,25.75
2022-12-25T00:51:38.913Z,37.35
2022-12-25T00:54:06.747Z,29.95
2022-12-25T00:56:35.028Z,29.05
2022-12-25T00:59:03.174Z,35.25
2022-12-25T01:01:30.986Z,31.98
2022-12-25T01:04:00.597Z,44.15
2022-12-25T01:06:28.886Z,34.38
2022-12-25T01:09:14.663Z,33.63
2022-12-25T01:11:42.513Z,34.58
2022-12-25T01:14:10.522Z,30.10
2022-12-25T01:16:38.676Z,30.75
2022-12-25T01:19:09.313Z,38.38
2022-12-25T01:21:37.070Z,32.95
2022-12-25T01:24:06.008Z,36.78
2022-12-25T01:26:33.934Z,36.50
2022-12-25T01:29:02.542Z,28.83
2022-12-25T01:31:30.399Z,35.60
2022-12-25T01:33:58.173Z,26.48
2022-12-25T01:36:27.702Z,30.77
2022-12-25T01:38:55.933Z,30.75
2022-12-25T01:41:26.274Z,31.70
2022-12-25T01:44:00.892Z,36.58
2022-12-25T01:46:28.757Z,48.65
2022-12-25T01:49:00.143Z,45.45
2022-12-25T01:51:35.003Z,56.22
2022-12-25T01:54:06.623Z,51.42
2022-12-25T01:56:36.015Z,46.97
2022-12-25T01:59:04.436Z,52.60
2022-12-25T02:01:32.387Z,52.95
2022-12-25T02:04:06.830Z,49.47
2022-12-25T02:06:37.039Z,51.72
2022-12-25T02:09:05.434Z,39.38
2022-12-25T02:11:50.808Z,39.20
2022-12-25T02:14:18.897Z,38.17
2022-12-25T02:16:57.301Z,37.63
2022-12-25T02:19:38.904Z,39.88
2022-12-25T02:22:24.119Z,110.00
2022-12-25T02:25:08.019Z,51.00
2022-12-25T02:28:02.114Z,53.45
2022-12-25T02:30:36.856Z,45.35
2022-12-25T02:33:26.280Z,50.15
2022-12-25T02:35:57.961Z,58.28
2022-12-25T02:38:32.662Z,59.95
2022-12-25T02:41:05.434Z,60.80
2022-12-25T02:43:57.251Z,74.18
2022-12-25T02:46:44.643Z,78.05
2022-12-25T02:49:33.952Z,78.03
2022-12-25T02:52:23.431Z,71.88
2022-12-25T02:55:13.260Z,88.57
2022-12-25T02:58:02.963Z,68.13
2022-12-25T03:00:51.028Z,69.38
2022-12-25T03:03:38.545Z,68.97
2022-12-25T03:06:22.406Z,70.13
2022-12-25T03:09:16.288Z,70.13
2022-12-25T03:11:45.997Z,88.15
2022-12-25T03:14:31.829Z,85.57
2022-12-25T03:17:01.755Z,76.40
2022-12-25T03:20:01.121Z,80.60
2022-12-25T03:22:48.741Z,68.40
2022-12-25T03:25:35.547Z,69.45
2022-12-25T03:28:05.267Z,73.63
2022-12-25T03:30:59.449Z,66.65
2022-12-25T03:33:45.145Z,74.15
2022-12-25T03:36:23.434Z,84.38
2022-12-25T03:39:17.494Z,77.07
2022-12-25T03:42:07.501Z,67.07
2022-12-25T03:44:59.885Z,81.28
2022-12-25T03:50:52.443Z,78.95
2022-12-25T03:53:42.692Z,77.00
2022-12-25T03:56:28.550Z,82.15
2022-12-25T03:59:22.849Z,71.30
2022-12-25T04:02:08.778Z,78.35
2022-12-25T04:04:53.901Z,86.22
2022-12-25T04:07:40.590Z,83.32
2022-12-25T04:10:27.287Z,87.35
2022-12-25T04:13:12.459Z,83.30
2022-12-25T04:15:58.016Z,98.78
2022-12-25T04:18:43.275Z,89.30
2022-12-25T04:21:28.550Z,93.25
2022-12-25T04:24:17.678Z,86.18
2022-12-25T04:27:03.095Z,80.60
2022-12-25T04:29:48.451Z,111.63
2022-12-25T04:32:33.973Z,81.30
2022-12-25T04:35:19.281Z,99.32
2022-12-25T04:37:47.090Z,95.13
2022-12-25T04:40:16.867Z,116.50
2022-12-25T04:42:44.696Z,92.38
2022-12-25T04:45:12.979Z,84.30
2022-12-25T04:47:40.719Z,89.55
2022-12-25T04:50:09.395Z,75.45
2022-12-25T04:52:38.132Z,74.72
2022-12-25T04:55:07.329Z,77.47
2022-12-25T04:57:37.080Z,85.43
2022-12-25T05:00:07.156Z,114.20
2022-12-25T05:02:35.389Z,160.05
2022-12-25T05:05:03.308Z,73.22
2022-12-25T05:07:31.039Z,63.78
2022-12-25T05:09:59.100Z,66.45
2022-12-25T05:12:26.920Z,64.93
2022-12-25T05:14:56.036Z,98.07
2022-12-25T05:17:23.865Z,117.35
2022-12-25T05:19:51.666Z,87.35
2022-12-25T05:22:19.578Z,78.32
2022-12-25T05:24:47.327Z,84.82
2022-12-25T05:27:15.950Z,153.80
2022-12-25T05:29:43.913Z,107.82
2022-12-25T05:32:13.081Z,95.13
2022-12-25T05:34:40.879Z,91.57
2022-12-25T05:37:08.628Z,134.27
2022-12-25T05:39:37.075Z,96.53
2022-12-25T05:42:04.969Z,99.00
2022-12-25T05:44:32.713Z,206.27
2022-12-25T05:47:00.495Z,112.50
2022-12-25T05:49:29.587Z,145.20
2022-12-25T05:51:57.387Z,134.82
2022-12-25T05:54:25.251Z,590.33
2022-12-25T05:56:52.965Z,538.30
2022-12-25T05:59:20.674Z,544.00
2022-12-25T06:01:48.646Z,328.45
2022-12-25T06:04:16.543Z,455.15
2022-12-25T06:06:45.721Z,980.45
2022-12-25T06:09:14.621Z,448.05
2022-12-25T06:11:42.489Z,480.38
2022-12-25T06:14:12.574Z,462.33
2022-12-25T06:16:40.592Z,316.70
2022-12-25T06:19:09.201Z,271.40
2022-12-25T06:21:37.097Z,489.20
2022-12-25T06:24:07.057Z,261.67
2022-12-25T06:26:34.907Z,542.05
2022-12-25T06:29:02.661Z,620.00
2022-12-25T06:31:30.772Z,441.30
2022-12-25T06:33:58.582Z,159.45
2022-12-25T06:36:29.260Z,141.73
2022-12-25T06:38:57.809Z,123.45
2022-12-25T06:41:28.977Z,90.32
2022-12-25T06:43:59.317Z,208.80
2022-12-25T06:46:29.637Z,271.15
2022-12-25T06:48:59.941Z,173.43
2022-12-25T06:51:30.394Z,375.17
2022-12-25T06:53:58.545Z,194.25
2022-12-25T06:56:29.446Z,291.67
2022-12-25T06:58:59.147Z,129.15
2022-12-25T07:01:30.225Z,215.35
2022-12-25T07:04:00.755Z,765.73
2022-12-25T07:06:28.711Z,253.95
2022-12-25T07:08:56.558Z,189.65
2022-12-25T07:11:25.118Z,243.63
2022-12-25T07:13:54.386Z,384.98
2022-12-25T07:16:22.241Z,493.98
2022-12-25T07:18:50.492Z,497.85
2022-12-25T07:21:21.232Z,306.48
2022-12-25T07:23:51.512Z,547.28
2022-12-25T07:26:19.385Z,174.98
2022-12-25T07:28:47.343Z,330.38
2022-12-25T07:31:18.042Z,556.45
2022-12-25T07:36:16.115Z,271.48
2022-12-25T07:38:43.989Z,202.20
2022-12-25T07:41:12.902Z,625.72
2022-12-25T07:43:40.907Z,227.75
2022-12-25T07:46:09.431Z,232.73
2022-12-25T07:48:39.833Z,527.88
2022-12-25T07:51:09.237Z,200.98
2022-12-25T07:53:37.411Z,203.15
2022-12-25T07:56:07.789Z,308.75
2022-12-25T07:58:36.226Z,171.00
2022-12-25T08:01:06.872Z,364.67
2022-12-25T08:03:35.882Z,465.50
2022-12-25T08:06:07.114Z,185.55
2022-12-25T08:08:35.728Z,387.63
2022-12-25T08:11:03.819Z,185.88
2022-12-25T08:13:32.703Z,235.52
2022-12-25T08:16:02.133Z,115.88
2022-12-25T08:18:30.561Z,194.13
2022-12-25T08:21:03.167Z,163.45
2022-12-25T08:23:34.699Z,346.38
2022-12-25T08:26:05.424Z,148.40
2022-12-25T08:28:34.746Z,151.63
2022-12-25T08:31:07.837Z,93.80
2022-12-25T08:33:36.347Z,94.20
2022-12-25T08:36:04.745Z,94.50
2022-12-25T08:38:33.951Z,167.82
2022-12-25T08:41:01.802Z,374.20
2022-12-25T08:43:29.844Z,77.22
2022-12-25T08:45:57.856Z,229.30
2022-12-25T08:48:25.871Z,173.68
2022-12-25T08:50:54.551Z,126.63
2022-12-25T08:53:23.326Z,237.98
2022-12-25T08:55:58.404Z,211.57
2022-12-25T08:58:26.711Z,372.95
2022-12-25T09:00:55.175Z,233.68
2022-12-25T09:03:23.488Z,166.55
2022-12-25T09:05:51.574Z,109.55
2022-12-25T09:08:20.180Z,150.52
2022-12-25T09:10:47.958Z,91.45
2022-12-25T09:13:17.357Z,211.30
2022-12-25T09:15:45.131Z,314.63
2022-12-25T09:18:12.964Z,256.95
2022-12-25T09:20:40.681Z,228.95
2022-12-25T09:23:13.552Z,83.47
2022-12-25T09:25:42.132Z,222.80
2022-12-25T09:28:09.914Z,250.32
2022-12-25T09:30:39.129Z,127.43
2022-12-25T09:33:07.051Z,58.60
2022-12-25T09:35:34.826Z,141.63
2022-12-25T09:38:02.695Z,80.60
2022-12-25T09:40:33.142Z,76.85
2022-12-25T09:43:02.706Z,89.55
2022-12-25T09:45:35.846Z,82.53
2022-12-25T09:48:05.521Z,607.97
2022-12-25T09:50:42.877Z,280.70
2022-12-25T09:53:16.708Z,59.53
2022-12-25T09:56:01.540Z,201.30
2022-12-25T09:58:31.581Z,241.57
2022-12-25T10:01:05.302Z,404.55
2022-12-25T10:03:52.129Z,180.45
2022-12-25T10:06:23.884Z,162.45
2022-12-25T10:09:09.322Z,72.85
2022-12-25T10:11:53.808Z,144.88
2022-12-25T10:14:30.890Z,69.93
2022-12-25T10:17:09.895Z,53.08
2022-12-25T10:19:47.264Z,65.97
2022-12-25T10:22:21.056Z,143.15
2022-12-25T10:24:52.076Z,55.17
2022-12-25T10:27:26.074Z,90.18
2022-12-25T10:29:55.078Z,55.72
2022-12-25T10:32:24.004Z,63.08
2022-12-25T10:34:53.174Z,83.82
2022-12-25T10:37:20.936Z,55.95
2022-12-25T10:39:48.717Z,54.67
2022-12-25T10:42:29.496Z,47.10
2022-12-25T10:44:59.208Z,42.85
2022-12-25T10:47:30.097Z,38.60
2022-12-25T10:50:00.008Z,55.97
2022-12-25T10:52:29.533Z,48.10
2022-12-25T10:54:57.724Z,48.58
2022-12-25T10:57:28.038Z,50.35
2022-12-25T10:59:57.650Z,41.45
2022-12-25T11:02:28.563Z,91.20
2022-12-25T11:05:06.546Z,57.00
2022-12-25T11:07:46.667Z,76.13
2022-12-25T11:10:23.424Z,32.40
2022-12-25T11:12:51.789Z,33.30
2022-12-25T11:15:36.748Z,34.30
2022-12-25T11:18:06.135Z,34.25
2022-12-25T11:20:35.829Z,27.85
2022-12-25T11:23:10.423Z,42.53
2022-12-25T11:25:38.313Z,38.35
2022-12-25T11:28:07.851Z,27.20
2022-12-25T11:30:37.239Z,29.23
2022-12-25T11:33:08.245Z,28.75
2022-12-25T11:35:45.971Z,23.95
2022-12-25T11:38:13.841Z,25.50
2022-12-25T11:40:45.698Z,27.67
2022-12-25T11:43:19.697Z,24.95
2022-12-25T11:45:51.624Z,22.35
2022-12-25T11:48:22.857Z,22.85
2022-12-25T11:50:56.646Z,23.73
2022-12-25T11:53:30.867Z,19.00
2022-12-25T11:56:02.788Z,18.48
2022-12-25T11:58:37.093Z,18.30
2022-12-25T12:01:10.349Z,17.83
2022-12-25T12:03:42.124Z,15.73
2022-12-25T12:06:18.666Z,16.23
2022-12-25T12:08:49.395Z,16.33
2022-12-25T12:11:22.712Z,20.13
2022-12-25T12:14:03.390Z,15.55
2022-12-25T12:16:32.071Z,15.07
2022-12-25T12:18:59.837Z,15.32
2022-12-25T12:21:31.517Z,14.85
2022-12-25T12:24:05.138Z,15.07
2022-12-25T12:26:38.066Z,14.50
2022-12-25T12:29:08.797Z,12.90
2022-12-25T12:31:42.727Z,13.50
2022-12-25T12:34:22.852Z,11.40
2022-12-25T12:36:53.897Z,10.23
2022-12-25T12:39:33.253Z,12.07
2022-12-25T12:42:01.411Z,11.68
2022-12-25T12:44:34.669Z,10.15
2022-12-25T12:47:02.621Z,10.57
2022-12-25T12:49:33.698Z,11.80
2022-12-25T12:52:07.953Z,9.83
2022-12-25T12:54:55.861Z,9.48
2022-12-25T12:57:27.216Z,10.38
2022-12-25T12:59:54.990Z,10.30
2022-12-25T13:02:45.454Z,10.63
2022-12-25T13:05:21.267Z,12.82
2022-12-25T13:07:58.144Z,12.57
2022-12-25T13:10:31.799Z,10.68
2022-12-25T13:13:03.161Z,12.18
2022-12-25T13:15:33.943Z,11.10
2022-12-25T13:18:04.760Z,11.05
2022-12-25T13:20:41.517Z,16.27
2022-12-25T13:23:26.439Z,12.55
2022-12-25T13:25:55.254Z,10.80
2022-12-25T13:28:28.610Z,10.88
2022-12-25T13:31:03.584Z,11.35
2022-12-25T13:33:31.567Z,13.43
2022-12-25T13:35:59.702Z,11.48
2022-12-25T13:38:29.933Z,12.05
2022-12-25T13:41:16.440Z,13.70
2022-12-25T13:43:45.975Z,12.32
2022-12-25T13:46:14.979Z,13.80
2022-12-25T13:48:43.419Z,13.82
2022-12-25T13:51:16.877Z,15.52
2022-12-25T13:53:46.397Z,13.57
2022-12-25T13:56:16.633Z,15.00
2022-12-25T13:58:48.502Z,16.50
2022-12-25T14:01:18.673Z,14.68
2022-12-25T14:03:48.905Z,13.85
2022-12-25T14:06:20.159Z,14.80
2022-12-25T14:08:49.911Z,14.05
2022-12-25T14:11:21.577Z,12.38
2022-12-25T14:13:52.250Z,12.70
2022-12-25T14:16:21.945Z,10.82
2022-12-25T14:18:55.242Z,14.82
2022-12-25T14:21:28.539Z,11.85
2022-12-25T14:23:57.844Z,13.95
2022-12-25T14:26:28.328Z,11.68
2022-12-25T14:29:12.266Z,11.90
2022-12-25T14:31:45.169Z,10.95
2022-12-25T14:34:17.037Z,13.48
2022-12-25T14:36:44.913Z,12.27
2022-12-25T14:39:28.433Z,14.25
2022-12-25T14:41:56.378Z,12.52
2022-12-25T14:44:33.831Z,14.95
2022-12-25T14:47:06.780Z,13.15
2022-12-25T14:49:34.617Z,16.65
2022-12-25T14:52:09.420Z,16.52
2022-12-25T14:54:38.660Z,12.43
2022-12-25T14:57:06.529Z,17.73
2022-12-25T14:59:34.339Z,12.55
2022-12-25T15:02:02.834Z,13.68
2022-12-25T15:04:31.175Z,13.25
2022-12-25T15:07:01.724Z,14.27
2022-12-25T15:09:30.827Z,12.90
2022-12-25T15:12:00.525Z,15.27
2022-12-25T15:14:30.060Z,13.80
2022-12-25T15:17:00.555Z,15.65
2022-12-25T15:19:37.345Z,16.88
2022-12-25T15:22:06.324Z,17.50
2022-12-25T15:24:34.094Z,13.95
2022-12-25T15:27:05.345Z,16.38
2022-12-25T15:30:07.976Z,19.92
2022-12-25T15:32:23.211Z,16.13
2022-12-25T15:34:53.030Z,17.35
2022-12-25T15:37:20.848Z,17.17
2022-12-25T15:39:49.079Z,14.10
2022-12-25T15:42:20.170Z,16.38
2022-12-25T15:44:48.012Z,17.27
2022-12-25T15:47:17.853Z,16.35
2022-12-25T15:49:45.650Z,19.88
2022-12-25T15:52:17.083Z,21.50
2022-12-25T15:54:44.964Z,24.08
2022-12-25T15:57:20.596Z,25.05
2022-12-25T15:59:48.453Z,31.60
2022-12-25T16:02:18.461Z,27.48
2022-12-25T16:04:47.091Z,68.13
2022-12-25T16:07:17.163Z,55.33
2022-12-25T16:09:45.131Z,32.03
2022-12-25T16:12:13.174Z,34.15
2022-12-25T16:14:42.852Z,85.13
2022-12-25T16:17:13.325Z,106.97
2022-12-25T16:19:41.033Z,77.75
2022-12-25T16:22:12.933Z,98.55
2022-12-25T16:24:40.785Z,171.85
2022-12-25T16:27:08.558Z,69.53
2022-12-25T16:29:36.331Z,112.45
2022-12-25T16:32:05.827Z,32.22
2022-12-25T16:34:33.546Z,62.00
2022-12-25T16:37:01.343Z,33.95
2022-12-25T16:39:29.111Z,32.85
2022-12-25T16:41:57.134Z,160.45
2022-12-25T16:44:24.929Z,85.55
2022-12-25T16:46:52.986Z,171.70
2022-12-25T16:49:22.125Z,138.95
2022-12-25T16:51:49.913Z,97.93
2022-12-25T16:54:17.709Z,48.65
2022-12-25T16:56:45.794Z,146.75
2022-12-25T16:59:13.593Z,50.15
2022-12-25T17:01:43.285Z,96.25
2022-12-25T17:04:11.363Z,110.60
2022-12-25T17:06:41.028Z,50.90
2022-12-25T17:09:08.737Z,45.88
2022-12-25T17:11:36.565Z,31.73
2022-12-25T17:14:06.263Z,29.58
2022-12-25T17:16:37.112Z,37.80
2022-12-25T17:19:07.982Z,63.33
2022-12-25T17:21:38.112Z,31.80
2022-12-25T17:24:08.212Z,41.67
2022-12-25T17:26:36.059Z,36.72
2022-12-25T17:29:04.277Z,68.15
2022-12-25T17:31:32.504Z,57.78
2022-12-25T17:34:01.634Z,47.50
2022-12-25T17:36:29.785Z,41.88
2022-12-25T17:38:57.756Z,42.72
2022-12-25T17:41:26.930Z,32.38
2022-12-25T17:43:54.813Z,26.35
2022-12-25T17:46:24.619Z,28.52
2022-12-25T17:48:53.507Z,31.38
2022-12-25T17:51:23.744Z,30.27
2022-12-25T17:53:52.878Z,30.23
2022-12-25T17:56:21.730Z,33.40
2022-12-25T17:58:53.037Z,36.40
2022-12-25T18:01:21.561Z,30.20
2022-12-25T18:03:50.023Z,30.88
2022-12-25T18:06:19.742Z,35.40
2022-12-25T18:08:48.586Z,43.38
2022-12-25T18:11:18.344Z,57.05
2022-12-25T18:13:48.640Z,61.28
2022-12-25T18:16:18.773Z,65.70
2022-12-25T18:18:51.869Z,56.70
2022-12-25T18:21:21.860Z,45.05
2022-12-25T18:23:49.961Z,44.25
2022-12-25T18:26:18.618Z,46.63
2022-12-25T18:28:46.388Z,55.92
2022-12-25T18:31:17.011Z,71.25
2022-12-25T18:33:46.440Z,54.17
2022-12-25T18:36:15.340Z,41.58
2022-12-25T18:38:43.841Z,52.08
2022-12-25T18:41:12.494Z,58.92
2022-12-25T18:43:52.221Z,118.15
2022-12-25T18:46:24.588Z,171.88
2022-12-25T18:48:54.596Z,56.20
2022-12-25T18:51:22.531Z,75.30
2022-12-25T18:53:51.539Z,146.00
2022-12-25T18:56:19.913Z,180.32
2022-12-25T18:58:48.536Z,148.98
2022-12-25T19:01:18.514Z,175.48
2022-12-25T19:03:48.915Z,249.32
2022-12-25T19:06:23.899Z,448.90
2022-12-25T19:08:52.537Z,491.55
2022-12-25T19:11:20.710Z,93.50
2022-12-25T19:13:48.982Z,226.10
2022-12-25T19:16:16.861Z,325.05
2022-12-25T19:18:45.044Z,114.05
2022-12-25T19:21:12.959Z,240.10
2022-12-25T19:23:42.118Z,453.75
2022-12-25T19:26:11.964Z,221.95
2022-12-25T19:28:40.493Z,107.78
2022-12-25T19:31:10.248Z,79.72
2022-12-25T19:33:39.512Z,128.07
2022-12-25T19:36:09.743Z,216.07
2022-12-25T19:38:38.077Z,316.15
2022-12-25T19:41:09.354Z,292.10
2022-12-25T19:43:40.486Z,364.52
2022-12-25T19:46:10.012Z,302.97
2022-12-25T19:48:37.939Z,232.25
2022-12-25T19:51:06.069Z,223.63
2022-12-25T19:53:33.937Z,169.32
2022-12-25T19:56:03.199Z,265.85
2022-12-25T19:58:32.632Z,181.75
2022-12-25T20:01:01.635Z,258.63
2022-12-25T20:03:29.768Z,68.30
2022-12-25T20:05:57.732Z,111.30
2022-12-25T20:08:26.002Z,257.35
2022-12-25T20:10:53.758Z,203.18
2022-12-25T20:13:22.625Z,159.02
2022-12-25T20:15:51.831Z,180.23
2022-12-25T20:18:20.849Z,110.70
2022-12-25T20:20:48.640Z,141.98
2022-12-25T20:23:16.348Z,66.50
2022-12-25T20:25:44.090Z,66.10
2022-12-25T20:28:12.217Z,219.18
2022-12-25T20:30:40.863Z,135.18
2022-12-25T20:33:10.168Z,143.57
2022-12-25T20:35:38.096Z,353.38
2022-12-25T20:38:05.874Z,432.10
2022-12-25T20:40:53.072Z,149.95
2022-12-25T20:43:21.367Z,159.95
2022-12-25T20:45:52.563Z,157.65
2022-12-25T20:48:21.790Z,244.02
2022-12-25T20:50:50.055Z,92.07
2022-12-25T20:53:18.042Z,255.63
2022-12-25T20:55:47.032Z,634.10
2022-12-25T20:58:15.791Z,277.08
2022-12-25T21:00:45.533Z,344.00
2022-12-25T21:03:13.431Z,382.00
2022-12-25T21:05:49.872Z,94.93
2022-12-25T21:08:18.109Z,103.07
2022-12-25T21:10:50.287Z,93.47
2022-12-25T21:13:18.328Z,124.57
2022-12-25T21:15:46.915Z,73.13
2022-12-25T21:18:15.182Z,156.30
2022-12-25T21:20:47.261Z,78.88
2022-12-25T21:25:42.879Z,124.72
2022-12-25T21:28:10.628Z,39.47
2022-12-25T21:30:38.538Z,69.05
2022-12-25T21:33:24.246Z,358.05
2022-12-25T21:35:53.400Z,187.95
2022-12-25T21:38:21.181Z,103.85
2022-12-25T21:40:48.909Z,86.15
2022-12-25T21:43:16.672Z,187.25
2022-12-25T21:45:44.505Z,62.20
2022-12-25T21:48:13.323Z,126.32
2022-12-25T21:50:58.570Z,149.82
2022-12-25T21:53:27.703Z,55.20
2022-12-25T21:56:00.530Z,86.10
2022-12-25T21:58:28.434Z,165.70
2022-12-25T22:00:56.453Z,445.17
2022-12-25T22:03:25.112Z,356.40
2022-12-25T22:06:10.276Z,291.52
2022-12-25T22:08:39.533Z,112.80
2022-12-25T22:11:27.322Z,56.30
2022-12-25T22:14:12.488Z,44.42
2022-12-25T22:16:57.912Z,37.58
2022-12-25T22:19:45.093Z,27.73
2022-12-25T22:22:13.343Z,36.20
2022-12-25T22:24:42.583Z,25.60
2022-12-25T22:27:10.476Z,18.77
2022-12-25T22:29:38.422Z,16.23
2022-12-25T22:32:07.039Z,17.58
2022-12-25T22:34:35.380Z,17.45
2022-12-25T22:37:03.747Z,44.03
2022-12-25T22:39:32.032Z,50.67
2022-12-25T22:42:02.617Z,104.13
2022-12-25T22:44:32.349Z,43.50
2022-12-25T22:47:00.504Z,32.92
2022-12-25T22:49:28.943Z,30.63
2022-12-25T22:51:57.227Z,26.70
2022-12-25T22:54:26.047Z,19.08
2022-12-25T22:56:54.437Z,20.60
2022-12-25T22:59:23.789Z,24.15
2022-12-25T23:01:52.205Z,68.45
2022-12-25T23:04:20.180Z,36.63
2022-12-25T23:06:48.719Z,50.25
2022-12-25T23:09:24.159Z,54.03
2022-12-25T23:11:52.546Z,39.40
2022-12-25T23:14:37.816Z,26.15
2022-12-25T23:17:28.564Z,20.13
2022-12-25T23:20:14.969Z,27.20
2022-12-25T23:23:00.904Z,18.75
2022-12-25T23:25:46.655Z,18.58
2022-12-25T23:28:14.486Z,16.20
2022-12-25T23:30:41.192Z,16.75
2022-12-25T23:33:10.304Z,17.65
2022-12-25T23:35:38.033Z,19.42
2022-12-25T23:38:05.757Z,14.73
2022-12-25T23:40:33.579Z,14.48
2022-12-25T23:43:01.334Z,12.98
2022-12-25T23:45:29.775Z,14.30
2022-12-25T23:47:57.888Z,17.05
2022-12-25T23:50:26.971Z,16.15
2022-12-25T23:52:54.745Z,29.48
2022-12-25T23:55:24.498Z,50.80
2022-12-25T23:57:52.316Z,145.55
